createdAt,value
2023-01-23T00:03:23.907Z,2.67
2023-01-23T00:06:21.203Z,4.03
2023-01-23T00:19:46.287Z,5.17
2023-01-23T00:22:15.330Z,5.03
2023-01-23T00:24:42.999Z,3.00
2023-01-23T00:27:10.693Z,8.67
2023-01-23T00:29:38.494Z,3.73
2023-01-23T00:32:06.297Z,4.20
2023-01-23T00:34:34.206Z,2.87
2023-01-23T00:37:03.501Z,6.00
2023-01-23T00:39:31.870Z,4.23
2023-01-23T00:41:59.829Z,4.83
2023-01-23T00:44:27.676Z,6.43
2023-01-23T00:46:55.452Z,4.17
2023-01-23T00:49:26.173Z,7.13
2023-01-23T00:51:56.461Z,4.10
2023-01-23T00:54:25.964Z,4.43
2023-01-23T00:56:53.979Z,4.03
2023-01-23T00:59:23.497Z,3.93
2023-01-23T01:01:51.588Z,3.13
2023-01-23T01:04:19.432Z,6.77
2023-01-23T01:06:47.162Z,5.57
2023-01-23T01:09:14.986Z,4.13
2023-01-23T01:11:44.515Z,4.60
2023-01-23T01:14:12.297Z,5.10
2023-01-23T01:16:45.075Z,3.63
2023-01-23T01:19:13.083Z,4.03
2023-01-23T01:21:41.058Z,5.00
2023-01-23T01:24:11.806Z,5.07
2023-01-23T01:26:40.265Z,5.07
2023-01-23T01:29:09.352Z,3.10
2023-01-23T01:31:37.206Z,3.20
2023-01-23T01:34:05.009Z,3.50
2023-01-23T01:36:32.762Z,3.80
2023-01-23T01:39:00.416Z,6.17
2023-01-23T01:41:28.131Z,8.47
2023-01-23T01:43:57.476Z,3.93
2023-01-23T01:46:28.137Z,2.80
2023-01-23T01:49:08.997Z,3.40
2023-01-23T01:51:41.130Z,4.03
2023-01-23T01:54:14.484Z,15.93
2023-01-23T01:56:51.046Z,6.77
2023-01-23T01:59:19.899Z,6.30
2023-01-23T02:01:52.485Z,7.43
2023-01-23T02:04:21.690Z,4.30
2023-01-23T02:06:50.596Z,2.90
2023-01-23T02:09:21.305Z,3.90
2023-01-23T02:11:50.248Z,6.70
2023-01-23T02:14:20.948Z,6.87
2023-01-23T02:16:52.794Z,4.90
2023-01-23T02:19:32.374Z,5.37
2023-01-23T02:22:06.990Z,5.30
2023-01-23T02:24:38.491Z,4.80
2023-01-23T02:27:07.563Z,7.43
2023-01-23T02:29:43.183Z,6.80
2023-01-23T02:32:11.457Z,6.10
2023-01-23T02:34:39.237Z,8.57
2023-01-23T02:37:07.710Z,5.77
2023-01-23T02:39:35.385Z,7.53
2023-01-23T02:42:04.734Z,5.80
2023-01-23T02:44:53.862Z,4.97
2023-01-23T02:47:23.105Z,5.57
2023-01-23T02:49:50.954Z,5.93
2023-01-23T02:52:18.697Z,8.03
2023-01-23T02:54:47.521Z,6.70
2023-01-23T02:57:16.361Z,5.50
2023-01-23T03:00:03.230Z,11.33
2023-01-23T03:02:36.790Z,6.10
2023-01-23T03:05:04.861Z,5.33
2023-01-23T03:07:33.139Z,8.17
2023-01-23T03:10:01.824Z,6.13
2023-01-23T03:12:30.775Z,4.70
2023-01-23T03:14:59.389Z,5.07
2023-01-23T03:17:28.937Z,5.13
2023-01-23T03:19:58.017Z,4.63
2023-01-23T03:22:27.319Z,6.37
2023-01-23T03:24:57.732Z,6.03
2023-01-23T03:27:25.871Z,5.97
2023-01-23T03:30:14.214Z,7.17
2023-01-23T03:32:41.912Z,7.50
2023-01-23T03:35:14.164Z,5.40
2023-01-23T03:37:42.247Z,8.00
2023-01-23T03:40:33.500Z,16.30
2023-01-23T03:43:01.760Z,8.50
2023-01-23T03:45:30.271Z,8.63
2023-01-23T03:47:58.113Z,8.50
2023-01-23T03:50:27.857Z,7.73
2023-01-23T03:52:55.621Z,6.20
2023-01-23T03:55:23.726Z,8.60
2023-01-23T03:57:51.837Z,8.63
2023-01-23T04:00:26.083Z,6.60
2023-01-23T04:02:59.823Z,7.03
2023-01-23T04:05:30.258Z,6.90
2023-01-23T04:07:58.715Z,7.00
2023-01-23T04:10:27.284Z,7.73
2023-01-23T04:12:59.409Z,6.30
2023-01-23T04:15:27.356Z,5.67
2023-01-23T04:17:57.651Z,6.83
2023-01-23T04:20:26.659Z,6.20
2023-01-23T04:22:56.960Z,5.30
2023-01-23T04:25:25.798Z,9.10
2023-01-23T04:27:53.619Z,7.47
2023-01-23T04:30:21.908Z,5.43
2023-01-23T04:32:49.984Z,8.60
2023-01-23T04:35:19.720Z,7.10
2023-01-23T04:37:47.636Z,7.33
2023-01-23T04:40:17.072Z,8.80
2023-01-23T04:42:52.696Z,6.17
2023-01-23T04:45:33.562Z,5.13
2023-01-23T04:48:20.413Z,6.90
2023-01-23T04:50:49.216Z,10.47
2023-01-23T04:53:16.950Z,8.03
2023-01-23T04:55:50.049Z,7.37
2023-01-23T04:58:19.731Z,7.90
2023-01-23T05:00:48.437Z,6.33
2023-01-23T05:03:19.017Z,6.60
2023-01-23T05:05:49.194Z,4.90
2023-01-23T05:08:16.891Z,10.87
2023-01-23T05:10:52.617Z,8.13
2023-01-23T05:13:21.242Z,8.23
2023-01-23T05:15:48.972Z,6.70
2023-01-23T05:18:17.820Z,8.37
2023-01-23T05:20:46.599Z,8.20
2023-01-23T05:23:14.305Z,7.97
2023-01-23T05:25:51.842Z,10.83
2023-01-23T05:28:19.784Z,6.63
2023-01-23T05:30:52.315Z,7.43
2023-01-23T05:33:32.049Z,9.90
2023-01-23T05:36:00.727Z,9.20
2023-01-23T05:38:28.664Z,5.80
2023-01-23T05:40:57.640Z,9.53
2023-01-23T05:43:44.095Z,9.57
2023-01-23T05:46:30.397Z,7.53
2023-01-23T05:48:58.044Z,11.20
2023-01-23T05:51:31.525Z,8.43
2023-01-23T05:54:00.909Z,8.77
2023-01-23T05:56:30.887Z,10.90
2023-01-23T05:59:21.716Z,7.80
2023-01-23T06:02:09.677Z,8.20
2023-01-23T06:04:55.973Z,11.60
2023-01-23T06:07:31.345Z,10.87
2023-01-23T06:09:59.586Z,9.93
2023-01-23T06:12:29.001Z,11.73
2023-01-23T06:14:57.169Z,13.43
2023-01-23T06:17:24.844Z,8.83
2023-01-23T06:19:52.444Z,10.10
2023-01-23T06:22:20.177Z,10.60
2023-01-23T06:25:01.321Z,13.53
2023-01-23T06:27:30.521Z,14.83
2023-01-23T06:29:59.651Z,11.17
2023-01-23T06:32:27.481Z,11.33
2023-01-23T06:34:55.470Z,9.80
2023-01-23T06:37:23.255Z,9.50
2023-01-23T06:39:51.792Z,11.90
2023-01-23T06:42:19.606Z,9.80
2023-01-23T06:44:51.433Z,10.67
2023-01-23T06:47:20.889Z,10.50
2023-01-23T06:49:56.091Z,12.30
2023-01-23T06:52:25.070Z,13.07
2023-01-23T06:54:52.867Z,12.30
2023-01-23T06:57:20.694Z,9.53
2023-01-23T06:59:51.655Z,10.10
2023-01-23T07:02:25.545Z,13.13
2023-01-23T07:04:54.012Z,9.33
2023-01-23T07:07:21.840Z,14.10
2023-01-23T07:09:50.895Z,9.77
2023-01-23T07:12:21.961Z,10.90
2023-01-23T07:14:51.889Z,12.00
2023-01-23T07:17:24.718Z,12.00
2023-01-23T07:19:52.800Z,9.77
2023-01-23T07:22:21.998Z,15.30
2023-01-23T07:24:51.425Z,10.90
2023-01-23T07:27:19.299Z,12.93
2023-01-23T07:29:47.353Z,12.00
2023-01-23T07:32:16.367Z,10.33
2023-01-23T07:34:44.035Z,17.50
2023-01-23T07:37:11.693Z,11.37
2023-01-23T07:39:39.400Z,14.23
2023-01-23T07:42:07.131Z,11.93
2023-01-23T07:44:34.947Z,15.53
2023-01-23T07:47:02.953Z,11.80
2023-01-23T07:49:32.217Z,11.10
2023-01-23T07:51:59.855Z,11.87
2023-01-23T07:54:27.755Z,10.00
2023-01-23T07:56:56.133Z,11.20
2023-01-23T07:59:24.160Z,13.63
2023-01-23T08:01:52.694Z,16.23
2023-01-23T08:04:20.927Z,10.90
2023-01-23T08:06:50.458Z,13.40
2023-01-23T08:09:18.549Z,11.70
2023-01-23T08:11:46.355Z,12.87
2023-01-23T08:14:14.327Z,11.40
2023-01-23T08:16:42.440Z,12.23
2023-01-23T08:19:10.607Z,16.53
2023-01-23T08:21:38.888Z,14.23
2023-01-23T08:24:08.776Z,11.77
2023-01-23T08:26:36.581Z,12.27
2023-01-23T08:29:04.785Z,8.50
2023-01-23T08:31:32.719Z,13.93
2023-01-23T08:34:00.537Z,10.77
2023-01-23T08:36:28.452Z,15.30
2023-01-23T08:38:56.697Z,11.93
2023-01-23T08:41:25.811Z,13.70
2023-01-23T08:43:53.758Z,12.10
2023-01-23T08:46:22.599Z,12.63
2023-01-23T08:48:50.483Z,12.53
2023-01-23T08:51:21.436Z,13.63
2023-01-23T08:53:49.272Z,12.77
2023-01-23T08:56:18.978Z,17.07
2023-01-23T08:58:48.316Z,15.63
2023-01-23T09:01:17.456Z,16.77
2023-01-23T09:03:45.555Z,14.37
2023-01-23T09:06:13.738Z,12.20
2023-01-23T09:08:41.633Z,15.83
2023-01-23T09:11:11.091Z,9.90
2023-01-23T09:13:39.438Z,14.10
2023-01-23T09:16:09.700Z,13.97
2023-01-23T09:18:37.901Z,13.90
2023-01-23T09:21:10.312Z,16.43
2023-01-23T09:23:38.228Z,16.37
2023-01-23T09:26:07.010Z,12.60
2023-01-23T09:28:36.455Z,15.73
2023-01-23T09:31:05.297Z,16.60
2023-01-23T09:33:34.372Z,19.33
2023-01-23T09:36:02.345Z,15.30
2023-01-23T09:38:30.042Z,12.00
2023-01-23T09:40:59.098Z,14.30
2023-01-23T09:43:39.097Z,12.53
2023-01-23T09:46:12.080Z,11.70
2023-01-23T09:48:46.100Z,12.80
2023-01-23T09:51:20.792Z,16.60
2023-01-23T09:53:48.604Z,15.97
2023-01-23T09:56:27.649Z,16.40
2023-01-23T09:59:01.560Z,13.10
2023-01-23T10:01:31.217Z,16.03
2023-01-23T10:04:01.179Z,14.00
2023-01-23T10:06:31.127Z,12.23
2023-01-23T10:09:25.523Z,13.47
2023-01-23T10:12:02.978Z,15.30
2023-01-23T10:14:51.841Z,11.97
2023-01-23T10:17:23.900Z,16.50
2023-01-23T10:20:12.529Z,14.63
2023-01-23T10:22:42.870Z,20.30
2023-01-23T10:25:14.029Z,19.00
2023-01-23T10:27:44.057Z,21.60
2023-01-23T10:30:22.834Z,15.00
2023-01-23T10:32:53.111Z,15.57
2023-01-23T10:35:26.897Z,15.33
2023-01-23T10:38:02.037Z,18.37
2023-01-23T10:40:47.652Z,16.00
2023-01-23T10:43:17.087Z,18.60
2023-01-23T10:45:46.748Z,18.80
2023-01-23T10:48:45.577Z,18.30
2023-01-23T10:51:29.491Z,15.53
2023-01-23T10:54:30.311Z,15.03
2023-01-23T10:57:00.791Z,17.47
2023-01-23T10:59:32.693Z,17.57
2023-01-23T11:02:21.706Z,22.27
2023-01-23T11:04:53.482Z,19.53
2023-01-23T11:07:25.113Z,23.67
2023-01-23T11:09:55.427Z,17.10
2023-01-23T11:12:24.829Z,16.20
2023-01-23T11:14:53.713Z,19.90
2023-01-23T11:17:23.948Z,19.20
2023-01-23T11:19:54.356Z,14.13
2023-01-23T11:22:29.413Z,14.80
2023-01-23T11:24:57.487Z,17.20
2023-01-23T11:27:28.149Z,16.30
2023-01-23T11:30:05.081Z,21.80
2023-01-23T11:32:34.763Z,14.30
2023-01-23T11:35:12.069Z,19.10
2023-01-23T11:37:41.885Z,17.60
2023-01-23T11:40:13.362Z,13.00
2023-01-23T11:42:42.430Z,15.83
2023-01-23T11:45:15.051Z,14.90
2023-01-23T11:48:00.834Z,16.20
2023-01-23T11:50:43.639Z,14.90
2023-01-23T11:53:36.782Z,15.40
2023-01-23T11:56:28.253Z,16.63
2023-01-23T11:59:12.337Z,21.83
2023-01-23T12:01:55.019Z,15.90
2023-01-23T12:04:39.794Z,18.23
2023-01-23T12:07:20.884Z,13.90
2023-01-23T12:10:01.190Z,19.93
2023-01-23T12:12:48.215Z,14.87
2023-01-23T12:15:23.181Z,15.50
2023-01-23T12:17:56.213Z,15.40
2023-01-23T12:20:29.629Z,18.93
2023-01-23T12:23:09.212Z,13.60
2023-01-23T12:25:39.384Z,16.13
2023-01-23T12:28:18.959Z,18.40
2023-01-23T12:31:12.023Z,13.20
2023-01-23T12:33:51.601Z,15.93
2023-01-23T12:36:30.833Z,17.37
2023-01-23T12:39:05.975Z,19.80
2023-01-23T12:41:38.066Z,14.33
2023-01-23T12:44:10.093Z,14.07
2023-01-23T12:46:42.032Z,14.27
2023-01-23T12:49:20.457Z,13.53
2023-01-23T12:51:52.190Z,15.73
2023-01-23T12:54:30.775Z,21.37
2023-01-23T12:57:00.809Z,15.50
2023-01-23T12:59:34.108Z,16.63
2023-01-23T13:02:06.709Z,16.77
2023-01-23T13:04:47.532Z,16.50
2023-01-23T13:07:25.890Z,17.40
2023-01-23T13:10:15.655Z,18.23
2023-01-23T13:12:44.988Z,13.80
2023-01-23T13:15:39.113Z,16.80
2023-01-23T13:18:22.908Z,15.23
2023-01-23T13:21:15.756Z,15.87
2023-01-23T13:23:44.153Z,16.30
2023-01-23T13:26:23.423Z,13.73
2023-01-23T13:28:55.007Z,15.57
2023-01-23T13:31:29.339Z,16.57
2023-01-23T13:34:10.231Z,16.60
2023-01-23T13:36:43.160Z,16.53
2023-01-23T13:39:23.714Z,18.23
2023-01-23T13:41:54.360Z,17.73
2023-01-23T13:44:35.789Z,18.70
2023-01-23T14:22:13.238Z,20.13
2023-01-23T14:24:44.707Z,17.63
2023-01-23T14:27:21.923Z,16.57
2023-01-23T14:29:58.491Z,17.50
2023-01-23T14:32:30.766Z,15.13
2023-01-23T14:34:58.662Z,16.07
2023-01-23T14:37:27.286Z,14.40
2023-01-23T14:39:59.816Z,16.57
2023-01-23T14:42:30.434Z,20.13
2023-01-23T14:45:00.836Z,15.87
2023-01-23T14:47:35.343Z,19.07
2023-01-23T14:50:04.992Z,15.40
2023-01-23T14:52:34.004Z,17.83
2023-01-23T14:55:07.868Z,23.53
2023-01-23T14:57:37.218Z,21.03
2023-01-23T15:00:06.364Z,18.53
2023-01-23T15:02:37.122Z,21.73
2023-01-23T15:05:18.443Z,24.43
2023-01-23T15:07:49.017Z,20.30
2023-01-23T15:10:18.799Z,22.83
2023-01-23T15:12:55.577Z,22.40
2023-01-23T15:15:26.000Z,22.57
2023-01-23T15:17:56.813Z,20.10
2023-01-23T15:20:34.379Z,17.07
2023-01-23T15:23:22.486Z,19.80
2023-01-23T15:26:00.798Z,16.40
2023-01-23T15:28:39.834Z,18.20
2023-01-23T15:31:29.935Z,21.30
2023-01-23T15:34:20.225Z,16.33
2023-01-23T15:36:49.912Z,17.53
2023-01-23T15:39:20.925Z,17.83
2023-01-23T15:41:52.310Z,19.60
2023-01-23T15:44:23.185Z,16.37
2023-01-23T15:46:51.537Z,21.33
2023-01-23T15:49:25.904Z,16.23
2023-01-23T15:51:56.500Z,16.27
2023-01-23T15:54:26.771Z,16.67
2023-01-23T15:57:06.557Z,16.07
2023-01-23T15:59:35.759Z,19.20
2023-01-23T16:02:03.806Z,17.97
2023-01-23T16:04:33.072Z,18.60
2023-01-23T16:07:04.028Z,15.40
2023-01-23T16:09:34.170Z,17.13
2023-01-23T16:12:02.225Z,17.07
2023-01-23T16:14:30.449Z,19.13
2023-01-23T16:17:11.482Z,20.13
2023-01-23T16:19:44.673Z,19.80
2023-01-23T16:22:17.613Z,17.10
2023-01-23T16:24:45.785Z,20.80
2023-01-23T16:27:23.011Z,20.67
2023-01-23T16:29:50.920Z,21.20
2023-01-23T16:32:18.758Z,20.20
2023-01-23T16:34:48.091Z,19.60
2023-01-23T16:37:17.740Z,20.53
2023-01-23T16:39:46.473Z,18.50
2023-01-23T16:42:21.917Z,19.30
2023-01-23T16:44:50.264Z,26.63
2023-01-23T16:47:18.264Z,20.30
2023-01-23T16:49:53.317Z,17.83
2023-01-23T16:52:24.752Z,18.63
2023-01-23T16:54:53.043Z,19.80
2023-01-23T16:57:21.584Z,22.23
2023-01-23T16:59:50.339Z,21.53
2023-01-23T17:02:22.515Z,19.80
2023-01-23T17:04:52.560Z,24.70
2023-01-23T17:07:20.817Z,25.93
2023-01-23T17:09:49.373Z,24.03
2023-01-23T17:12:18.908Z,21.13
2023-01-23T17:14:47.147Z,22.07
2023-01-23T17:17:18.487Z,23.20
2023-01-23T17:19:46.739Z,22.13
2023-01-23T17:22:20.151Z,19.10
2023-01-23T17:24:47.971Z,23.67
2023-01-23T17:27:15.679Z,18.87
2023-01-23T17:29:43.501Z,22.77
2023-01-23T17:32:23.497Z,21.60
2023-01-23T17:34:51.450Z,18.87
2023-01-23T17:37:21.774Z,19.00
2023-01-23T17:39:49.768Z,23.33
2023-01-23T17:42:17.872Z,24.23
2023-01-23T17:44:45.613Z,21.80
2023-01-23T17:47:16.542Z,25.53
2023-01-23T17:49:47.390Z,18.67
2023-01-23T17:52:15.260Z,26.13
2023-01-23T17:54:44.424Z,27.67
2023-01-23T17:57:12.315Z,25.97
2023-01-23T17:59:40.724Z,20.83
2023-01-23T18:02:21.810Z,24.77
2023-01-23T18:04:49.627Z,29.10
2023-01-23T18:07:18.041Z,27.83
2023-01-23T18:09:47.289Z,23.37
2023-01-23T18:12:18.308Z,26.20
2023-01-23T18:14:48.349Z,24.23
2023-01-23T18:17:28.215Z,20.97
2023-01-23T18:19:56.609Z,25.60
2023-01-23T18:22:25.107Z,28.20
2023-01-23T18:24:55.203Z,22.70
2023-01-23T18:27:25.272Z,24.40
2023-01-23T18:30:05.681Z,48.97
2023-01-23T18:33:06.503Z,26.37
2023-01-23T18:35:51.388Z,29.37
2023-01-23T18:38:24.300Z,24.50
2023-01-23T18:41:07.506Z,28.63
2023-01-23T18:43:39.027Z,23.73
2023-01-23T18:46:09.487Z,26.20
2023-01-23T18:48:37.864Z,25.20
2023-01-23T18:51:13.025Z,25.70
2023-01-23T18:53:49.842Z,26.90
2023-01-23T18:56:24.212Z,26.63
2023-01-23T18:59:10.496Z,27.90
2023-01-23T19:01:44.902Z,25.17
2023-01-23T19:04:15.873Z,25.03
2023-01-23T19:06:44.770Z,26.37
2023-01-23T19:09:19.663Z,22.40
2023-01-23T19:12:02.307Z,24.77
2023-01-23T19:14:53.395Z,30.17
2023-01-23T19:17:33.358Z,29.07
2023-01-23T19:20:06.660Z,23.30
2023-01-23T19:22:47.318Z,29.37
2023-01-23T19:25:19.400Z,32.73
2023-01-23T19:27:56.005Z,28.53
2023-01-23T19:30:25.486Z,24.57
2023-01-23T19:32:53.339Z,25.90
2023-01-23T19:35:21.862Z,30.20
2023-01-23T19:37:49.997Z,25.67
2023-01-23T19:40:18.445Z,32.50
2023-01-23T19:42:58.792Z,35.40
2023-01-23T19:45:34.827Z,28.30
2023-01-23T19:48:02.473Z,35.17
2023-01-23T19:50:30.206Z,25.63
2023-01-23T19:53:00.145Z,24.67
2023-01-23T19:55:30.238Z,34.30
2023-01-23T19:57:58.211Z,36.40
2023-01-23T20:00:27.137Z,26.53
2023-01-23T20:02:57.048Z,36.07
2023-01-23T20:05:25.474Z,35.60
2023-01-23T20:07:53.923Z,35.63
2023-01-23T20:10:22.226Z,29.80
2023-01-23T20:12:52.134Z,37.57
2023-01-23T20:15:21.753Z,25.63
2023-01-23T20:17:49.852Z,30.43
2023-01-23T20:20:19.483Z,30.73
2023-01-23T20:22:47.282Z,27.77
2023-01-23T20:25:17.039Z,30.33
2023-01-23T20:27:45.001Z,29.00
2023-01-23T20:30:16.587Z,29.03
2023-01-23T20:32:44.813Z,29.97
2023-01-23T20:35:12.921Z,26.70
2023-01-23T20:37:42.111Z,38.43
2023-01-23T20:40:11.575Z,28.13
2023-01-23T20:42:39.676Z,28.87
2023-01-23T20:45:08.384Z,38.20
2023-01-23T20:47:36.465Z,29.87
2023-01-23T20:50:04.784Z,35.77
2023-01-23T20:52:50.387Z,39.27
2023-01-23T20:55:19.945Z,29.40
2023-01-23T20:58:05.504Z,27.47
2023-01-23T21:00:33.212Z,42.77
2023-01-23T21:03:01.136Z,28.50
2023-01-23T21:05:28.993Z,31.33
2023-01-23T21:07:56.627Z,32.63
2023-01-23T21:10:25.573Z,35.30
2023-01-23T21:12:53.277Z,30.77
2023-01-23T21:15:21.200Z,26.50
2023-01-23T21:17:48.935Z,26.53
2023-01-23T21:20:17.221Z,41.57
2023-01-23T21:22:44.896Z,33.33
2023-01-23T21:25:13.042Z,32.80
2023-01-23T21:27:42.429Z,30.87
2023-01-23T21:30:11.540Z,27.40
2023-01-23T21:32:39.219Z,27.03
2023-01-23T21:35:07.687Z,33.60
2023-01-23T21:37:35.407Z,32.60
2023-01-23T21:40:03.247Z,29.03
2023-01-23T21:42:30.869Z,34.13
2023-01-23T21:45:00.020Z,28.97
2023-01-23T21:47:27.866Z,32.53
2023-01-23T21:49:55.526Z,31.10
2023-01-23T21:52:23.201Z,28.40
2023-01-23T21:54:51.109Z,29.80
2023-01-23T21:57:18.749Z,35.63
2023-01-23T22:00:06.458Z,33.60
2023-01-23T22:02:40.790Z,30.67
2023-01-23T22:05:09.240Z,33.23
2023-01-23T22:07:37.013Z,28.43
2023-01-23T22:10:05.291Z,28.47
2023-01-23T22:12:33.028Z,34.50
2023-01-23T22:15:00.734Z,31.00
2023-01-23T22:17:28.477Z,29.90
2023-01-23T22:19:57.735Z,38.73
2023-01-23T22:22:25.438Z,31.30
2023-01-23T22:24:53.250Z,30.00
2023-01-23T22:27:22.699Z,30.20
2023-01-23T22:29:50.998Z,28.03
2023-01-23T22:32:18.752Z,28.70
2023-01-23T22:34:46.775Z,33.30
2023-01-23T22:37:16.118Z,32.30
2023-01-23T22:39:44.085Z,31.90
2023-01-23T22:42:11.762Z,24.73
2023-01-23T22:44:39.933Z,35.93
2023-01-23T22:47:08.751Z,30.20
2023-01-23T22:49:36.676Z,35.90
2023-01-23T22:52:04.505Z,30.50
2023-01-23T22:54:33.531Z,29.30
2023-01-23T22:57:01.709Z,27.03
2023-01-23T22:59:29.571Z,40.30
2023-01-23T23:01:57.297Z,29.40
2023-01-23T23:04:25.135Z,31.60
2023-01-23T23:06:52.768Z,29.13
2023-01-23T23:09:21.081Z,29.00
2023-01-23T23:11:51.741Z,29.50
2023-01-23T23:14:19.896Z,26.87
2023-01-23T23:16:47.831Z,27.33
2023-01-23T23:19:15.586Z,26.80
2023-01-23T23:21:43.270Z,30.20
2023-01-23T23:24:13.743Z,32.60
2023-01-23T23:26:41.915Z,32.23
2023-01-23T23:29:12.378Z,33.13
2023-01-23T23:31:40.356Z,31.83
2023-01-23T23:34:08.342Z,30.13
2023-01-23T23:36:36.026Z,27.93
2023-01-23T23:39:03.870Z,29.70
2023-01-23T23:41:31.805Z,28.33
2023-01-23T23:43:59.796Z,27.07
2023-01-23T23:46:29.170Z,27.00
2023-01-23T23:48:57.143Z,28.83
2023-01-23T23:51:26.489Z,32.90
2023-01-23T23:53:55.580Z,29.40
2023-01-23T23:56:24.738Z,27.57
2023-01-23T23:58:54.164Z,24.37
